createdAt,value
2023-05-21T00:00:50.483Z,10.75
2023-05-21T00:03:17.254Z,11.90
2023-05-21T00:05:44.392Z,11.80
2023-05-21T00:08:12.757Z,11.40
2023-05-21T00:10:39.441Z,12.38
2023-05-21T00:13:06.124Z,10.98
2023-05-21T00:15:32.860Z,11.33
2023-05-21T00:17:59.702Z,11.88
2023-05-21T00:20:26.287Z,11.88
2023-05-21T00:22:53.168Z,11.93
2023-05-21T00:25:21.109Z,11.57
2023-05-21T00:27:47.646Z,12.07
2023-05-21T00:30:14.182Z,12.23
2023-05-21T00:32:40.769Z,12.25
2023-05-21T00:35:08.645Z,10.63
2023-05-21T00:37:35.350Z,10.43
2023-05-21T00:40:02.383Z,11.77
2023-05-21T00:42:30.453Z,11.00
2023-05-21T00:44:57.072Z,10.88
2023-05-21T00:47:24.367Z,11.90
2023-05-21T00:49:51.178Z,11.40
2023-05-21T00:52:17.793Z,11.15
2023-05-21T00:54:44.412Z,11.47
2023-05-21T00:57:11.217Z,10.95
2023-05-21T00:59:39.449Z,11.57
2023-05-21T01:02:06.319Z,10.73
2023-05-21T01:04:33.030Z,11.57
2023-05-21T01:06:59.577Z,10.50
2023-05-21T01:09:26.902Z,10.07
2023-05-21T01:11:55.442Z,11.57
2023-05-21T01:14:24.055Z,12.27
2023-05-21T01:16:52.739Z,11.10
2023-05-21T01:19:21.440Z,11.77
2023-05-21T01:21:50.628Z,11.07
2023-05-21T01:24:19.308Z,11.05
2023-05-21T01:26:45.972Z,12.02
2023-05-21T01:29:13.311Z,11.38
2023-05-21T01:31:52.687Z,11.33
2023-05-21T01:34:23.881Z,10.63
2023-05-21T01:36:57.338Z,11.27
2023-05-21T01:39:30.222Z,11.20
2023-05-21T01:41:57.978Z,11.07
2023-05-21T01:44:25.666Z,11.57
2023-05-21T01:46:54.450Z,10.68
2023-05-21T01:49:22.530Z,11.25
2023-05-21T01:51:49.766Z,10.68
2023-05-21T01:54:16.427Z,10.85
2023-05-21T01:56:44.353Z,10.83
2023-05-21T01:59:11.771Z,11.00
2023-05-21T02:01:38.340Z,10.05
2023-05-21T02:04:05.324Z,9.68
2023-05-21T02:06:31.898Z,11.43
2023-05-21T02:08:58.429Z,9.63
2023-05-21T02:11:25.022Z,10.38
2023-05-21T02:13:52.890Z,11.00
2023-05-21T02:16:19.649Z,9.98
2023-05-21T02:18:46.294Z,11.38
2023-05-21T02:21:12.925Z,10.97
2023-05-21T02:23:39.448Z,10.85
2023-05-21T02:26:05.976Z,10.18
2023-05-21T02:28:32.548Z,10.32
2023-05-21T02:31:00.580Z,11.30
2023-05-21T02:33:27.124Z,10.80
2023-05-21T02:35:53.890Z,10.57
2023-05-21T02:38:20.684Z,10.25
2023-05-21T02:40:47.266Z,10.70
2023-05-21T02:43:15.410Z,11.13
2023-05-21T02:45:42.808Z,10.43
2023-05-21T02:48:10.883Z,9.82
2023-05-21T02:50:37.417Z,11.07
2023-05-21T02:53:04.161Z,10.90
2023-05-21T02:55:30.885Z,11.18
2023-05-21T02:57:57.425Z,11.60
2023-05-21T03:00:24.007Z,10.70
2023-05-21T03:02:50.550Z,10.95
2023-05-21T03:05:18.526Z,10.52
2023-05-21T03:07:45.234Z,11.43
2023-05-21T03:10:11.916Z,10.30
2023-05-21T03:12:38.679Z,11.38
2023-05-21T03:15:06.042Z,10.70
2023-05-21T03:17:32.697Z,10.63
2023-05-21T03:19:59.292Z,10.77
2023-05-21T03:22:27.246Z,10.70
2023-05-21T03:24:53.802Z,10.77
2023-05-21T03:27:20.330Z,10.18
2023-05-21T03:29:47.008Z,10.73
2023-05-21T03:32:13.802Z,11.68
2023-05-21T03:34:40.696Z,10.88
2023-05-21T03:37:07.378Z,10.30
2023-05-21T03:39:35.268Z,10.75
2023-05-21T03:42:01.911Z,10.65
2023-05-21T03:44:28.483Z,10.68
2023-05-21T03:46:55.024Z,10.45
2023-05-21T03:49:21.622Z,11.73
2023-05-21T03:51:48.335Z,10.77
2023-05-21T03:54:15.014Z,10.88
2023-05-21T03:56:42.934Z,9.73
2023-05-21T03:59:09.435Z,11.27
2023-05-21T04:01:36.281Z,11.37
2023-05-21T04:04:03.076Z,11.30
2023-05-21T04:06:29.856Z,11.68
2023-05-21T04:08:56.410Z,11.20
2023-05-21T04:11:23.024Z,10.95
2023-05-21T04:13:50.975Z,11.77
2023-05-21T04:16:17.607Z,11.80
2023-05-21T04:18:45.638Z,11.43
2023-05-21T04:21:13.135Z,12.05
2023-05-21T04:23:39.756Z,11.63
2023-05-21T04:26:06.466Z,11.63
2023-05-21T04:28:32.993Z,15.40
2023-05-21T04:31:00.916Z,13.70
2023-05-21T04:33:27.508Z,12.75
2023-05-21T04:35:55.384Z,12.60
2023-05-21T04:38:22.010Z,11.70
2023-05-21T04:40:50.536Z,12.60
2023-05-21T04:43:17.171Z,11.55
2023-05-21T04:45:43.857Z,11.43
2023-05-21T04:48:12.260Z,11.38
2023-05-21T04:50:38.827Z,10.70
2023-05-21T04:53:05.525Z,11.50
2023-05-21T04:55:32.028Z,11.75
2023-05-21T04:57:58.600Z,11.45
2023-05-21T05:00:25.311Z,11.10
2023-05-21T05:02:51.914Z,10.90
2023-05-21T05:05:19.952Z,10.80
2023-05-21T05:07:46.471Z,11.25
2023-05-21T05:10:13.029Z,11.38
2023-05-21T05:12:39.708Z,11.05
2023-05-21T05:15:07.321Z,11.40
2023-05-21T05:17:33.906Z,11.25
2023-05-21T05:20:00.412Z,11.15
2023-05-21T05:22:28.456Z,10.73
2023-05-21T05:24:55.023Z,11.40
2023-05-21T05:27:21.725Z,11.00
2023-05-21T05:29:48.348Z,11.98
2023-05-21T05:32:14.972Z,12.52
2023-05-21T05:34:41.675Z,12.55
2023-05-21T05:37:08.402Z,11.82
2023-05-21T05:39:36.428Z,12.07
2023-05-21T05:42:03.564Z,11.75
2023-05-21T05:44:30.172Z,12.48
2023-05-21T05:46:56.731Z,11.60
2023-05-21T05:49:23.357Z,12.30
2023-05-21T05:51:50.049Z,11.80
2023-05-21T05:54:16.577Z,12.55
2023-05-21T05:56:44.562Z,12.30
2023-05-21T05:59:11.110Z,11.82
2023-05-21T06:01:37.614Z,11.85
2023-05-21T06:04:04.409Z,11.67
2023-05-21T06:06:31.095Z,12.10
2023-05-21T06:08:57.599Z,11.80
2023-05-21T06:11:24.286Z,11.32
2023-05-21T06:13:52.211Z,11.18
2023-05-21T06:16:19.029Z,12.33
2023-05-21T06:18:45.627Z,11.85
2023-05-21T06:21:12.343Z,13.05
2023-05-21T06:23:39.020Z,12.35
2023-05-21T06:26:05.699Z,12.57
2023-05-21T06:28:32.259Z,11.80
2023-05-21T06:31:02.738Z,12.63
2023-05-21T06:33:29.525Z,13.07
2023-05-21T06:35:56.150Z,13.80
2023-05-21T06:38:22.839Z,13.55
2023-05-21T06:40:50.074Z,14.50
2023-05-21T06:43:16.642Z,14.10
2023-05-21T06:45:43.232Z,14.95
2023-05-21T06:48:11.288Z,14.02
2023-05-21T06:50:38.007Z,15.50
2023-05-21T06:53:04.543Z,13.77
2023-05-21T06:55:31.223Z,14.13
2023-05-21T06:57:57.813Z,14.70
2023-05-21T07:00:24.641Z,15.73
2023-05-21T07:02:51.634Z,14.15
2023-05-21T07:05:19.914Z,14.07
2023-05-21T07:07:46.444Z,14.60
2023-05-21T07:10:12.981Z,14.77
2023-05-21T07:12:39.678Z,14.55
2023-05-21T07:15:07.179Z,14.98
2023-05-21T07:17:33.776Z,14.70
2023-05-21T07:20:00.385Z,14.65
2023-05-21T07:22:28.598Z,14.95
2023-05-21T07:24:55.218Z,14.18
2023-05-21T07:27:25.870Z,14.32
2023-05-21T07:29:52.702Z,14.43
2023-05-21T07:32:19.427Z,13.35
2023-05-21T07:34:45.963Z,14.85
2023-05-21T07:37:12.523Z,14.82
2023-05-21T07:39:40.507Z,14.50
2023-05-21T07:42:07.181Z,14.07
2023-05-21T07:44:33.745Z,14.82
2023-05-21T07:47:00.415Z,14.80
2023-05-21T07:49:26.917Z,14.35
2023-05-21T07:51:53.434Z,14.48
2023-05-21T07:54:19.998Z,14.60
2023-05-21T07:56:47.927Z,14.25
2023-05-21T07:59:16.287Z,14.38
2023-05-21T08:01:42.854Z,13.73
2023-05-21T08:04:09.744Z,13.73
2023-05-21T08:06:36.334Z,13.70
2023-05-21T08:09:03.128Z,13.60
2023-05-21T08:11:29.638Z,14.05
2023-05-21T08:13:57.605Z,14.00
2023-05-21T08:16:24.393Z,14.00
2023-05-21T08:18:50.948Z,14.10
2023-05-21T08:21:17.594Z,13.00
2023-05-21T08:23:44.661Z,13.73
2023-05-21T08:26:11.278Z,13.32
2023-05-21T08:28:38.354Z,13.57
2023-05-21T08:31:06.421Z,12.93
2023-05-21T08:33:35.369Z,12.40
2023-05-21T08:36:02.034Z,13.18
2023-05-21T08:38:30.226Z,13.00
2023-05-21T08:40:58.376Z,12.85
2023-05-21T08:43:27.545Z,12.10
2023-05-21T08:45:55.136Z,13.25
2023-05-21T08:48:24.231Z,13.02
2023-05-21T08:50:52.246Z,12.98
2023-05-21T08:53:27.125Z,13.27
2023-05-21T08:55:56.163Z,11.93
2023-05-21T08:58:23.055Z,12.55
2023-05-21T09:00:49.796Z,12.60
2023-05-21T09:03:16.981Z,12.40
2023-05-21T09:05:45.450Z,13.45
2023-05-21T09:08:15.024Z,11.97
2023-05-21T09:10:48.504Z,13.38
2023-05-21T09:13:16.601Z,13.30
2023-05-21T09:15:43.832Z,13.02
2023-05-21T09:18:10.432Z,13.07
2023-05-21T09:20:37.146Z,12.60
2023-05-21T09:23:06.210Z,13.18
2023-05-21T09:25:33.294Z,12.68
2023-05-21T09:27:59.936Z,12.63
2023-05-21T09:30:34.881Z,13.00
2023-05-21T09:33:02.636Z,12.77
2023-05-21T09:35:29.480Z,13.02
2023-05-21T09:37:56.044Z,11.85
2023-05-21T09:40:24.285Z,12.07
2023-05-21T09:42:52.107Z,12.90
2023-05-21T09:45:19.643Z,12.37
2023-05-21T09:47:48.495Z,11.48
2023-05-21T09:50:19.237Z,11.73
2023-05-21T09:52:46.214Z,11.45
2023-05-21T09:55:13.948Z,12.35
2023-05-21T09:57:42.631Z,11.87
2023-05-21T10:00:16.780Z,12.07
2023-05-21T10:02:45.534Z,12.88
2023-05-21T10:05:13.433Z,12.20
2023-05-21T10:07:42.083Z,11.48
2023-05-21T10:10:13.263Z,12.90
2023-05-21T10:12:43.810Z,11.77
2023-05-21T10:15:14.375Z,11.77
2023-05-21T10:17:41.814Z,12.02
2023-05-21T10:20:11.100Z,11.55
2023-05-21T10:22:37.904Z,10.07
2023-05-21T10:25:06.659Z,11.32
2023-05-21T10:27:34.682Z,10.88
2023-05-21T10:30:04.155Z,10.77
2023-05-21T10:32:31.445Z,11.65
2023-05-21T10:35:00.727Z,10.83
2023-05-21T10:37:29.010Z,11.63
2023-05-21T10:39:56.550Z,11.05
2023-05-21T10:42:44.657Z,12.70
2023-05-21T10:45:19.795Z,11.80
2023-05-21T10:47:58.638Z,11.03
2023-05-21T10:50:53.901Z,10.95
2023-05-21T10:53:29.024Z,11.35
2023-05-21T10:56:05.217Z,11.60
2023-05-21T10:58:47.617Z,11.38
2023-05-21T11:01:17.079Z,10.53
2023-05-21T11:03:43.862Z,10.82
2023-05-21T11:06:10.601Z,12.35
2023-05-21T11:08:38.585Z,11.98
2023-05-21T11:11:05.333Z,12.18
2023-05-21T11:13:45.721Z,11.70
2023-05-21T11:16:17.795Z,11.65
2023-05-21T11:19:00.606Z,11.77
2023-05-21T11:21:30.247Z,12.00
2023-05-21T11:24:00.229Z,11.73
2023-05-21T11:26:27.722Z,10.83
2023-05-21T11:29:07.301Z,10.32
2023-05-21T11:31:35.845Z,11.45
2023-05-21T11:34:15.344Z,10.75
2023-05-21T11:36:44.787Z,11.23
2023-05-21T11:39:13.444Z,11.00
2023-05-21T11:41:53.261Z,11.15
2023-05-21T11:44:37.432Z,11.52
2023-05-21T11:47:06.901Z,11.10
2023-05-21T11:49:34.195Z,11.13
2023-05-21T11:52:01.777Z,11.37
2023-05-21T11:54:28.684Z,10.98
2023-05-21T11:56:55.793Z,10.68
2023-05-21T11:59:22.320Z,11.30
2023-05-21T12:01:48.833Z,11.25
2023-05-21T12:04:16.715Z,10.60
2023-05-21T12:06:43.605Z,10.75
2023-05-21T12:09:10.446Z,11.32
2023-05-21T12:11:38.605Z,11.38
2023-05-21T12:14:07.217Z,11.00
2023-05-21T12:16:34.256Z,9.97
2023-05-21T12:19:01.829Z,10.52
2023-05-21T12:21:30.363Z,11.02
2023-05-21T12:23:57.073Z,11.07
2023-05-21T12:26:24.337Z,11.00
2023-05-21T12:28:51.768Z,10.73
2023-05-21T12:31:18.421Z,10.73
2023-05-21T12:33:45.177Z,11.00
2023-05-21T12:36:22.047Z,10.80
2023-05-21T12:38:50.323Z,11.93
2023-05-21T12:41:17.735Z,10.50
2023-05-21T12:43:44.573Z,10.95
2023-05-21T12:46:11.524Z,11.25
2023-05-21T12:48:38.149Z,11.18
2023-05-21T12:51:04.717Z,10.82
2023-05-21T12:53:36.781Z,10.90
2023-05-21T12:56:09.945Z,11.07
2023-05-21T12:58:36.632Z,11.10
2023-05-21T13:01:06.115Z,10.75
2023-05-21T13:03:32.897Z,10.45
2023-05-21T13:05:59.888Z,10.97
2023-05-21T13:08:26.800Z,11.35
2023-05-21T13:10:53.557Z,11.68
2023-05-21T13:13:21.584Z,12.23
2023-05-21T13:15:48.177Z,12.20
2023-05-21T13:18:14.922Z,12.37
2023-05-21T13:20:41.434Z,12.48
2023-05-21T13:23:10.561Z,11.63
2023-05-21T13:25:38.117Z,11.30
2023-05-21T13:28:05.189Z,11.68
2023-05-21T13:30:33.232Z,11.37
2023-05-21T13:33:00.118Z,12.45
2023-05-21T13:35:26.882Z,11.48
2023-05-21T13:37:53.476Z,11.45
2023-05-21T13:40:20.359Z,11.75
2023-05-21T13:42:48.540Z,11.57
2023-05-21T13:45:17.020Z,12.13
2023-05-21T13:47:46.111Z,12.55
2023-05-21T13:50:12.851Z,12.55
2023-05-21T13:52:39.643Z,12.90
2023-05-21T13:55:07.212Z,12.57
2023-05-21T13:57:34.098Z,12.07
2023-05-21T14:00:00.674Z,12.27
2023-05-21T14:02:27.545Z,12.63
2023-05-21T14:04:55.705Z,12.18
2023-05-21T14:07:22.362Z,12.27
2023-05-21T14:09:49.180Z,12.20
2023-05-21T14:12:15.827Z,13.18
2023-05-21T14:14:42.625Z,12.25
2023-05-21T14:17:09.230Z,12.02
2023-05-21T14:19:35.912Z,12.33
2023-05-21T14:22:04.004Z,12.18
2023-05-21T14:24:30.683Z,12.45
2023-05-21T14:26:57.213Z,12.45
2023-05-21T14:29:24.035Z,12.95
2023-05-21T14:31:50.812Z,13.10
2023-05-21T14:34:17.425Z,12.65
2023-05-21T14:36:44.117Z,12.75
2023-05-21T14:39:12.039Z,13.02
2023-05-21T14:41:39.415Z,12.43
2023-05-21T14:44:06.024Z,11.37
2023-05-21T14:46:32.817Z,12.57
2023-05-21T14:48:59.630Z,12.43
2023-05-21T14:51:26.179Z,12.63
2023-05-21T14:53:52.903Z,12.30
2023-05-21T14:56:20.968Z,12.20
2023-05-21T14:58:47.525Z,12.52
2023-05-21T15:01:14.287Z,11.77
2023-05-21T15:03:40.964Z,11.93
2023-05-21T15:06:07.854Z,12.48
2023-05-21T15:08:34.382Z,12.00
2023-05-21T15:11:01.099Z,12.13
2023-05-21T15:13:29.085Z,11.70
2023-05-21T15:15:55.908Z,11.82
2023-05-21T15:18:22.458Z,11.75
2023-05-21T15:20:49.156Z,11.50
2023-05-21T15:23:18.821Z,11.23
2023-05-21T15:25:45.640Z,12.00
2023-05-21T15:28:12.695Z,12.13
2023-05-21T15:30:40.971Z,12.55
2023-05-21T15:33:07.848Z,11.33
2023-05-21T15:35:35.264Z,11.65
2023-05-21T15:38:02.224Z,12.20
2023-05-21T15:40:28.754Z,11.45
2023-05-21T15:42:55.320Z,10.73
2023-05-21T15:45:22.077Z,11.33
2023-05-21T15:47:50.003Z,10.85
2023-05-21T15:50:16.627Z,12.30
2023-05-21T15:52:43.314Z,11.25
2023-05-21T15:55:09.986Z,11.40
2023-05-21T15:57:36.624Z,11.53
2023-05-21T16:00:03.548Z,10.85
2023-05-21T16:02:30.262Z,10.18
2023-05-21T16:04:58.251Z,10.20
2023-05-21T16:07:24.901Z,10.38
2023-05-21T16:09:51.488Z,10.70
2023-05-21T16:12:18.232Z,10.48
2023-05-21T16:14:45.042Z,10.43
2023-05-21T16:17:11.741Z,10.02
2023-05-21T16:19:38.957Z,10.38
2023-05-21T16:22:07.857Z,10.30
2023-05-21T16:24:35.973Z,9.27
2023-05-21T16:27:02.748Z,10.25
2023-05-21T16:29:29.262Z,9.63
2023-05-21T16:31:56.072Z,9.38
2023-05-21T16:34:22.661Z,9.97
2023-05-21T16:36:49.194Z,9.88
2023-05-21T16:39:17.183Z,10.57
2023-05-21T16:41:43.719Z,9.73
2023-05-21T16:44:10.438Z,9.52
2023-05-21T16:46:37.409Z,9.03
2023-05-21T16:49:04.037Z,9.75
2023-05-21T16:51:30.714Z,9.80
2023-05-21T16:53:57.387Z,9.40
2023-05-21T16:56:26.560Z,9.30
2023-05-21T16:58:53.119Z,9.10
2023-05-21T17:01:19.857Z,9.18
2023-05-21T17:03:46.785Z,9.18
2023-05-21T17:06:13.418Z,8.35
2023-05-21T17:08:40.016Z,8.52
2023-05-21T17:11:06.645Z,8.80
2023-05-21T17:13:34.584Z,8.60
2023-05-21T17:16:01.184Z,8.45
2023-05-21T17:18:27.723Z,8.18
2023-05-21T17:20:54.407Z,8.50
2023-05-21T17:23:21.010Z,8.50
2023-05-21T17:25:47.887Z,8.57
2023-05-21T17:28:14.432Z,8.25
2023-05-21T17:30:42.338Z,8.25
2023-05-21T17:33:09.075Z,8.60
2023-05-21T17:35:35.964Z,8.20
2023-05-21T17:38:02.680Z,8.27
2023-05-21T17:40:29.201Z,8.00
2023-05-21T17:42:55.779Z,7.80
2023-05-21T17:45:22.336Z,8.23
2023-05-21T17:47:50.478Z,8.27
2023-05-21T17:50:17.064Z,8.30
2023-05-21T17:52:43.648Z,8.10
2023-05-21T17:55:10.565Z,7.63
2023-05-21T17:57:37.267Z,8.10
2023-05-21T18:00:04.363Z,8.10
2023-05-21T18:02:31.071Z,7.68
2023-05-21T18:04:59.019Z,7.90
2023-05-21T18:07:25.568Z,7.70
2023-05-21T18:09:52.126Z,7.40
2023-05-21T18:12:18.720Z,7.93
2023-05-21T18:14:45.285Z,7.72
2023-05-21T18:17:11.801Z,8.00
2023-05-21T18:19:38.375Z,7.75
2023-05-21T18:22:06.650Z,8.20
2023-05-21T18:24:33.516Z,7.47
2023-05-21T18:27:00.129Z,7.53
2023-05-21T18:29:26.729Z,7.78
2023-05-21T18:31:53.812Z,7.40
2023-05-21T18:34:20.448Z,7.50
2023-05-21T18:36:47.018Z,7.47
2023-05-21T18:39:15.007Z,7.25
2023-05-21T18:41:41.679Z,7.70
2023-05-21T18:44:08.338Z,7.10
2023-05-21T18:46:35.013Z,7.68
2023-05-21T18:49:01.582Z,7.20
2023-05-21T18:51:28.233Z,7.70
2023-05-21T18:53:54.745Z,7.53
2023-05-21T18:56:22.714Z,7.00
2023-05-21T18:58:49.339Z,7.55
2023-05-21T19:01:16.260Z,7.83
2023-05-21T19:03:42.945Z,7.43
2023-05-21T19:06:09.514Z,8.55
2023-05-21T19:08:36.051Z,7.65
2023-05-21T19:11:02.972Z,8.05
2023-05-21T19:13:30.930Z,7.77
2023-05-21T19:15:57.559Z,7.97
2023-05-21T19:18:24.229Z,8.30
2023-05-21T19:20:50.907Z,8.20
2023-05-21T19:23:17.652Z,8.35
2023-05-21T19:25:44.236Z,8.77
2023-05-21T19:28:10.780Z,8.55
2023-05-21T19:30:38.978Z,8.75
2023-05-21T19:33:05.670Z,9.07
2023-05-21T19:35:32.306Z,8.77
2023-05-21T19:37:59.676Z,8.67
2023-05-21T19:40:27.767Z,8.40
2023-05-21T19:42:54.319Z,9.05
2023-05-21T19:45:21.090Z,9.10
2023-05-21T19:47:49.261Z,9.27
2023-05-21T19:50:15.914Z,8.47
2023-05-21T19:52:42.477Z,8.88
2023-05-21T19:55:09.332Z,9.10
2023-05-21T19:57:36.154Z,8.90
2023-05-21T20:00:03.280Z,9.20
2023-05-21T20:02:29.888Z,9.07
2023-05-21T20:04:57.773Z,9.15
2023-05-21T20:07:24.507Z,9.30
2023-05-21T20:09:51.109Z,9.82
2023-05-21T20:12:17.864Z,9.48
2023-05-21T20:14:44.410Z,9.67
2023-05-21T20:17:11.034Z,9.15
2023-05-21T20:19:37.872Z,9.85
2023-05-21T20:22:06.083Z,8.50
2023-05-21T20:24:32.760Z,8.80
2023-05-21T20:26:59.345Z,9.40
2023-05-21T20:29:26.015Z,9.20
2023-05-21T20:31:52.588Z,8.50
2023-05-21T20:34:19.193Z,8.52
2023-05-21T20:36:45.859Z,9.18
2023-05-21T20:39:13.794Z,9.00
2023-05-21T20:41:40.358Z,9.25
2023-05-21T20:44:06.935Z,9.27
2023-05-21T20:46:34.216Z,9.40
2023-05-21T20:49:00.911Z,9.13
2023-05-21T20:51:27.517Z,8.73
2023-05-21T20:53:54.033Z,8.35
2023-05-21T20:56:33.615Z,9.00
2023-05-21T20:59:08.576Z,9.07
2023-05-21T21:01:36.491Z,9.18
2023-05-21T21:04:03.474Z,8.80
2023-05-21T21:06:30.094Z,8.90
2023-05-21T21:08:56.702Z,9.18
2023-05-21T21:11:24.934Z,10.35
2023-05-21T21:13:51.568Z,10.00
2023-05-21T21:16:18.143Z,9.67
2023-05-21T21:18:44.929Z,9.52
2023-05-21T21:21:11.476Z,9.27
2023-05-21T21:23:38.223Z,9.13
2023-05-21T21:26:04.806Z,9.52
2023-05-21T21:28:32.714Z,9.57
2023-05-21T21:30:59.365Z,9.15
2023-05-21T21:33:25.917Z,9.45
2023-05-21T21:35:52.509Z,9.63
2023-05-21T21:38:19.230Z,9.80
2023-05-21T21:40:45.748Z,9.63
2023-05-21T21:43:12.312Z,8.93
2023-05-21T21:45:40.395Z,9.68
2023-05-21T21:48:07.183Z,9.30
2023-05-21T21:50:33.807Z,9.40
2023-05-21T21:53:00.551Z,9.23
2023-05-21T21:55:27.071Z,10.07
2023-05-21T21:57:53.623Z,9.73
2023-05-21T22:00:20.459Z,9.60
2023-05-21T22:02:48.392Z,9.88
2023-05-21T22:05:15.039Z,9.57
2023-05-21T22:07:42.062Z,9.13
2023-05-21T22:10:09.407Z,9.40
2023-05-21T22:12:36.002Z,9.50
2023-05-21T22:15:02.610Z,9.85
2023-05-21T22:17:29.170Z,9.23
2023-05-21T22:19:57.352Z,9.50
2023-05-21T22:22:24.067Z,9.85
2023-05-21T22:24:50.599Z,10.10
2023-05-21T22:27:17.286Z,9.20
2023-05-21T22:29:43.788Z,9.60
2023-05-21T22:32:10.478Z,9.20
2023-05-21T22:34:37.060Z,9.60
2023-05-21T22:37:05.203Z,9.60
2023-05-21T22:39:31.764Z,9.68
2023-05-21T22:41:58.400Z,9.13
2023-05-21T22:44:25.012Z,9.52
2023-05-21T22:46:51.591Z,9.30
2023-05-21T22:49:18.264Z,9.43
2023-05-21T22:51:44.999Z,10.15
2023-05-21T22:54:13.144Z,8.57
2023-05-21T22:56:39.812Z,10.00
2023-05-21T22:59:06.525Z,10.23
2023-05-21T23:01:33.438Z,9.70
2023-05-21T23:04:00.047Z,9.55
2023-05-21T23:06:26.610Z,9.80
2023-05-21T23:08:53.203Z,9.30
2023-05-21T23:11:21.206Z,9.70
2023-05-21T23:13:47.746Z,9.60
2023-05-21T23:16:14.447Z,9.50
2023-05-21T23:18:41.051Z,9.10
2023-05-21T23:21:07.967Z,9.40
2023-05-21T23:23:34.587Z,9.27
2023-05-21T23:26:01.161Z,9.20
2023-05-21T23:28:29.085Z,9.85
2023-05-21T23:30:55.671Z,9.40
2023-05-21T23:33:22.422Z,9.35
2023-05-21T23:35:49.008Z,9.57
2023-05-21T23:38:15.714Z,9.85
2023-05-21T23:40:42.268Z,9.23
2023-05-21T23:43:08.798Z,9.97
2023-05-21T23:45:36.866Z,9.60
2023-05-21T23:48:03.912Z,9.63
2023-05-21T23:50:30.555Z,9.43
2023-05-21T23:52:57.273Z,9.43
2023-05-21T23:55:23.852Z,9.63
2023-05-21T23:57:50.449Z,10.38
